This is the latest recevied weather packets stored in our database for station/object KG5MMT-15. If no packets are shown the sender has not sent any weather packets the latest 1 day(s).
| Time | Temp. | Humidity | Pressure | Rain* | Wind** | Luminosity | Snow |
|---|---|---|---|---|---|---|---|
| 1778020036 | 14.44° C | 44% | 0 hPa | 0 mm | 1.79 m/s, 219° | - | - |
| 1778019736 | 14.44° C | 44% | 0 hPa | 0 mm | 1.79 m/s, 80° | - | - |
| 1778019436 | 14.44° C | 45% | 0 hPa | 0 mm | 1.34 m/s, 172° | - | - |
| 1778019136 | 14.44° C | 44% | 0 hPa | 0 mm | 3.58 m/s, 331° | - | - |
| 1778018836 | 15° C | 43% | 0 hPa | 0 mm | 0.89 m/s, 326° | - | - |
| 1778018536 | 15.56° C | 41% | 0 hPa | 0 mm | 2.24 m/s, 160° | - | - |
| 1778018236 | 15.56° C | 42% | 0 hPa | 0 mm | 4.47 m/s, 306° | - | - |
| 1778017936 | 15.56° C | 42% | 0 hPa | 0 mm | 3.13 m/s, 267° | - | - |
| 1778017636 | 15.56° C | 41% | 0 hPa | 0 mm | 4.02 m/s, 338° | - | - |
| 1778017336 | 15.56° C | 41% | 0 hPa | 0 mm | 2.68 m/s, 323° | - | - |
| 1778017036 | 15.56° C | 42% | 0 hPa | 0 mm | 2.24 m/s, 327° | - | - |
| 1778016736 | 15° C | 43% | 0 hPa | 0 mm | 2.24 m/s, 298° | - | - |
| 1778016436 | 15° C | 41% | 0 hPa | 0 mm | 5.81 m/s, 2° | - | - |
| 1778016136 | 16.11° C | 41% | 0 hPa | 0 mm | 0.89 m/s, 184° | - | - |
| 1778015836 | 16.11° C | 41% | 0 hPa | 0 mm | 1.34 m/s, 226° | - | - |
| 1778015536 | 16.67° C | 41% | 0 hPa | 0 mm | 0 m/s | - | - |
| 1778015236 | 15.56° C | 43% | 0 hPa | 0 mm | 0.89 m/s, 135° | - | - |
| 1778014936 | 16.11° C | 41% | 0 hPa | 0 mm | 2.68 m/s, 274° | - | - |
| 1778014636 | 16.11° C | 40% | 0 hPa | 0 mm | 0.89 m/s, 351° | - | - |
| 1778014336 | 16.11° C | 43% | 0 hPa | 0 mm | 1.79 m/s, 299° | - | - |
| 1778014036 | 15.56° C | 43% | 0 hPa | 0 mm | 0.89 m/s, 293° | - | - |
| 1778013736 | 15° C | 47% | 0 hPa | 0 mm | 1.79 m/s, 329° | - | - |
| 1778013436 | 14.44° C | 49% | 0 hPa | 0 mm | 0.89 m/s, 185° | - | - |
| 1778013136 | 13.89° C | 50% | 0 hPa | 0 mm | 1.79 m/s, 338° | - | - |
| 1778012836 | 13.89° C | 49% | 0 hPa | 0 mm | 0.89 m/s, 358° | - | - |
* Rain latest hour (hover to see other rain measurements)
** Current wind speed in m/s (hover to see current wind gust speed)